Аэропорт: Астана. Астана

ICAO: UACC

METAR:
2019-07-23 18:30:00
UACC 231830Z 25004MPS CAVOK 16/14 Q1006 R22/2///60 NOSIG RMK QFE724/0965
METAR:
2019-07-23 17:00:00
TAF UACC 231700Z 2318/2418 25005MPS 9999 SCT030CB BKN050 TX23/2409Z TN11/2323Z TEMPO 2318/2402 3100 BR BKN003 PROB40 TEMPO 2318/2402 -TSRA BECMG 2402/2403 31007G12MPS TEMPO 2402/2414 5000 -TSRA BKN020CB